Time;durP1;ratioP1;P1;durP2;ratioP2;P2;SDS_P1;SDS_P2;PMS_P1;PMS_P2;Temp;Humidity;BMP_temperature;BMP_pressure;BME280_temperature;BME280_humidity;BME280_pressure;Samples;Min_cycle;Max_cycle;Signal;HPM_P1;HPM_P2
2022/01/15 00:01:45;;;;;;;48.30;34.63;;;5.00;99.90;;;;;;5113837;28;20584;-58
2022/01/15 00:04:11;;;;;;;47.30;34.67;;;5.10;99.90;;;;;;5113741;28;20168;-58
2022/01/15 00:06:37;;;;;;;48.97;35.13;;;5.00;99.90;;;;;;5113994;28;20518;-58
2022/01/15 00:09:04;;;;;;;47.88;36.03;;;5.00;99.90;;;;;;5113589;28;20562;-58
2022/01/15 00:11:30;;;;;;;52.15;35.40;;;5.10;99.90;;;;;;5113636;28;20503;-58
2022/01/15 00:14:12;;;;;;;49.45;37.17;;;5.00;99.90;;;;;;5113602;28;20180;-58
2022/01/15 00:16:55;;;;;;;53.33;37.97;;;4.90;99.90;;;;;;5113494;28;20282;-58
2022/01/15 00:19:31;;;;;;;50.63;37.22;;;4.80;99.90;;;;;;5113597;28;20196;-58
2022/01/15 00:21:57;;;;;;;53.42;37.33;;;4.90;99.90;;;;;;5113557;28;20172;-58
2022/01/15 00:24:24;;;;;;;58.50;36.38;;;5.00;99.90;;;;;;5113281;28;20261;-58
2022/01/15 00:26:50;;;;;;;46.03;34.28;;;5.00;99.90;;;;;;5113427;28;20180;-58
2022/01/15 00:29:16;;;;;;;48.20;34.50;;;5.00;99.90;;;;;;5113449;28;20204;-58
2022/01/15 00:31:41;;;;;;;49.53;36.22;;;5.00;99.90;;;;;;5113199;28;20188;-58
2022/01/15 00:34:07;;;;;;;50.40;37.60;;;5.00;99.90;;;;;;5113487;28;20177;-58
2022/01/15 00:36:33;;;;;;;51.28;35.72;;;5.00;99.90;;;;;;5116461;28;20184;-58
2022/01/15 00:38:58;;;;;;;44.08;34.88;;;4.80;99.90;;;;;;5116901;28;20640;-58
2022/01/15 00:41:25;;;;;;;51.38;36.15;;;4.70;99.90;;;;;;5117435;28;20552;-58
2022/01/15 00:43:51;;;;;;;47.20;36.83;;;4.80;99.90;;;;;;5117084;28;20184;-58
2022/01/15 00:46:16;;;;;;;53.05;37.40;;;4.70;99.90;;;;;;5116834;28;20249;-57
2022/01/15 00:48:42;;;;;;;51.30;37.53;;;4.80;99.90;;;;;;5116759;28;20207;-58
2022/01/15 00:51:09;;;;;;;46.25;37.50;;;4.80;99.90;;;;;;5098996;28;20633;-58
2022/01/15 00:53:34;;;;;;;50.28;35.47;;;4.90;99.90;;;;;;5116899;28;20624;-58
2022/01/15 00:56:00;;;;;;;47.00;36.65;;;4.90;99.90;;;;;;5116850;28;20177;-58
2022/01/15 00:58:25;;;;;;;47.92;34.30;;;4.90;99.90;;;;;;5116895;28;20645;-58
2022/01/15 01:00:51;;;;;;;43.67;29.85;;;4.80;99.90;;;;;;5116731;28;20184;-58
2022/01/15 01:03:17;;;;;;;43.25;30.73;;;4.80;99.90;;;;;;5116700;28;20169;-58
2022/01/15 01:05:43;;;;;;;41.92;33.47;;;4.80;99.90;;;;;;5115804;28;20187;-58
2022/01/15 01:08:08;;;;;;;47.13;32.22;;;4.80;99.90;;;;;;5116695;28;20172;-58
2022/01/15 01:13:27;;;;;;;48.75;35.35;;;4.80;99.90;;;;;;5116621;28;20171;-58
2022/01/15 01:21:59;;;;;;;48.58;37.45;;;4.90;99.90;;;;;;5115625;28;20233;-58
2022/01/15 01:24:07;;;;;;;51.60;35.63;;;4.90;99.90;;;;;;5116375;28;20184;-58
2022/01/15 01:27:11;;;;;;;50.40;35.95;;;5.00;99.90;;;;;;5116354;28;20177;-58
2022/01/15 01:34:26;;;;;;;47.30;35.42;;;5.00;99.90;;;;;;5116125;28;20641;-58
2022/01/15 01:39:23;;;;;;;48.47;37.20;;;4.90;99.90;;;;;;5116063;28;20661;-57
2022/01/15 01:42:40;;;;;;;45.92;34.80;;;4.80;99.90;;;;;;5115943;28;20621;-58
2022/01/15 01:44:42;;;;;;;45.83;33.75;;;4.80;99.90;;;;;;5112492;28;20192;-58
2022/01/15 01:47:26;;;;;;;47.72;34.50;;;4.80;99.90;;;;;;5115348;28;20188;-58
2022/01/15 01:49:52;;;;;;;47.53;37.20;;;4.80;99.90;;;;;;5115643;28;20668;-58
2022/01/15 01:52:17;;;;;;;47.50;33.85;;;4.80;99.90;;;;;;5115787;28;20177;-58
2022/01/15 01:54:43;;;;;;;49.05;35.40;;;4.80;99.90;;;;;;5114598;28;20176;-58
2022/01/15 01:57:09;;;;;;;49.35;36.58;;;4.70;99.90;;;;;;5114387;28;20250;-58
2022/01/15 01:59:37;;;;;;;49.63;36.17;;;4.70;99.90;;;;;;5114785;28;20211;-58
2022/01/15 02:02:03;;;;;;;47.90;35.90;;;4.80;99.90;;;;;;5115627;28;20227;-58
2022/01/15 02:04:29;;;;;;;46.92;34.85;;;4.70;99.90;;;;;;5115539;28;20189;-57
2022/01/15 02:06:54;;;;;;;48.53;35.83;;;4.80;99.90;;;;;;5115257;28;20180;-57
2022/01/15 02:09:23;;;;;;;43.53;33.00;;;4.80;99.90;;;;;;5114200;28;20208;-58
2022/01/15 02:11:48;;;;;;;47.50;34.17;;;4.80;99.90;;;;;;5115431;28;20187;-58
2022/01/15 02:14:27;;;;;;;47.70;35.17;;;4.80;99.90;;;;;;5115654;28;20259;-58
2022/01/15 02:16:53;;;;;;;49.25;35.90;;;4.80;99.90;;;;;;5115037;28;20610;-58
2022/01/15 02:19:19;;;;;;;50.92;36.47;;;4.80;99.90;;;;;;5115180;28;20227;-58
2022/01/15 02:24:16;;;;;;;53.38;36.70;;;4.80;99.90;;;;;;5114110;28;20171;-58
2022/01/15 02:26:42;;;;;;;42.60;32.30;;;4.80;99.90;;;;;;5113977;28;20529;-58
2022/01/15 02:29:09;;;;;;;49.28;35.75;;;4.80;99.90;;;;;;5115058;28;20292;-58
2022/01/15 02:31:36;;;;;;;50.38;37.35;;;4.90;99.90;;;;;;5115035;28;20198;-58
2022/01/15 02:34:04;;;;;;;44.97;32.92;;;4.70;99.90;;;;;;5114921;28;20181;-58
2022/01/15 02:36:32;;;;;;;44.17;31.92;;;4.70;99.90;;;;;;5114946;28;20169;-58
2022/01/15 02:38:59;;;;;;;44.80;32.50;;;4.70;99.90;;;;;;5114883;28;20589;-58
2022/01/15 02:41:29;;;;;;;49.47;34.33;;;4.70;99.90;;;;;;5113575;28;20530;-58
2022/01/15 02:43:58;;;;;;;47.28;33.47;;;4.60;99.90;;;;;;5114759;28;20548;-58
2022/01/15 02:48:55;;;;;;;49.65;34.05;;;4.70;99.90;;;;;;5114644;28;20242;-58
2022/01/15 02:51:24;;;;;;;50.13;33.22;;;4.60;99.90;;;;;;5113491;28;20176;-58
2022/01/15 02:53:55;;;;;;;48.63;34.00;;;4.70;99.90;;;;;;5114602;28;20184;-58
2022/01/15 02:56:36;;;;;;;47.60;33.13;;;4.50;99.90;;;;;;5113570;28;20173;-58
2022/01/15 02:59:04;;;;;;;46.67;32.75;;;4.60;99.90;;;;;;5113396;28;20160;-58
2022/01/15 03:01:30;;;;;;;49.75;33.92;;;4.60;99.90;;;;;;5114566;28;20271;-58
2022/01/15 03:03:56;;;;;;;49.95;34.00;;;4.60;99.90;;;;;;5096278;28;20511;-58
2022/01/15 03:06:22;;;;;;;48.25;32.95;;;4.60;99.90;;;;;;5114069;28;20183;-58
2022/01/15 03:08:50;;;;;;;49.33;33.28;;;4.60;99.90;;;;;;5114227;28;20291;-58
2022/01/15 03:11:15;;;;;;;50.67;34.43;;;4.60;99.90;;;;;;5114898;28;20692;-59
2022/01/15 03:13:43;;;;;;;47.47;35.53;;;4.50;99.90;;;;;;5115587;28;20227;-58
2022/01/15 03:16:13;;;;;;;53.13;33.35;;;4.50;99.90;;;;;;5114127;28;20226;-57
2022/01/15 03:18:38;;;;;;;50.43;34.57;;;4.60;99.90;;;;;;5114357;28;20172;-58
2022/01/15 03:21:04;;;;;;;48.28;33.60;;;4.60;99.90;;;;;;5112996;28;20174;-58
2022/01/15 03:23:30;;;;;;;53.67;34.85;;;4.60;99.90;;;;;;5114190;28;20209;-58
2022/01/15 03:25:55;;;;;;;49.03;35.55;;;4.70;99.90;;;;;;5112620;28;20184;-58
2022/01/15 03:28:21;;;;;;;49.75;34.53;;;4.70;99.90;;;;;;5096020;28;20602;-58
2022/01/15 03:30:47;;;;;;;47.67;34.28;;;4.70;99.90;;;;;;5113700;28;20256;-58
2022/01/15 03:33:12;;;;;;;49.57;35.07;;;4.60;99.90;;;;;;5114029;28;20184;-58
2022/01/15 03:35:39;;;;;;;49.88;33.55;;;4.50;99.90;;;;;;5113692;28;20180;-58
2022/01/15 03:38:05;;;;;;;45.92;32.70;;;4.50;99.90;;;;;;5113664;28;20170;-58
2022/01/15 03:40:32;;;;;;;47.00;33.13;;;4.60;99.90;;;;;;5113899;28;20191;-58
2022/01/15 03:42:58;;;;;;;52.40;35.50;;;4.50;99.90;;;;;;5112720;28;20261;-57
2022/01/15 03:45:24;;;;;;;50.72;34.72;;;4.50;99.90;;;;;;5113956;28;20578;-58
2022/01/15 03:47:50;;;;;;;45.57;31.80;;;4.60;99.90;;;;;;5114377;28;20256;-58
2022/01/15 03:50:16;;;;;;;43.47;32.17;;;4.60;99.90;;;;;;5112478;28;20216;-58
2022/01/15 03:52:42;;;;;;;46.70;32.13;;;4.60;99.90;;;;;;5113584;28;20259;-58
2022/01/15 03:55:10;;;;;;;49.40;32.67;;;4.50;99.90;;;;;;5113824;28;20181;-58
2022/01/15 03:57:37;;;;;;;47.70;35.03;;;4.40;99.90;;;;;;5113706;28;20259;-58
2022/01/15 04:00:07;;;;;;;46.10;33.17;;;4.40;99.90;;;;;;5113770;28;20184;-58
2022/01/15 04:02:33;;;;;;;46.67;33.65;;;4.50;99.90;;;;;;5113791;28;20337;-58
2022/01/15 04:04:59;;;;;;;46.70;32.73;;;4.40;99.90;;;;;;5113719;28;20278;-58
2022/01/15 04:07:24;;;;;;;43.77;32.80;;;4.40;99.90;;;;;;5113778;28;20176;-58
2022/01/15 04:09:50;;;;;;;47.45;33.05;;;4.40;99.90;;;;;;5112774;28;20212;-58
2022/01/15 04:12:16;;;;;;;46.67;33.20;;;4.40;99.90;;;;;;5116301;28;20595;-58
2022/01/15 04:14:41;;;;;;;49.50;33.53;;;4.30;99.90;;;;;;5116568;28;20237;-58
2022/01/15 04:17:07;;;;;;;48.63;33.08;;;4.40;99.90;;;;;;5116112;28;20203;-57
2022/01/15 04:19:35;;;;;;;47.53;33.05;;;4.50;99.90;;;;;;5117600;28;20593;-58
2022/01/15 04:22:00;;;;;;;49.58;33.10;;;4.50;99.90;;;;;;5117529;28;20185;-58
2022/01/15 04:24:26;;;;;;;50.10;33.10;;;4.40;99.90;;;;;;5117510;28;20221;-58
2022/01/15 04:26:52;;;;;;;46.88;33.13;;;4.40;99.90;;;;;;5117747;28;20664;-57
2022/01/15 04:29:17;;;;;;;49.80;33.35;;;4.40;99.90;;;;;;5117377;28;20378;-58
2022/01/15 04:31:47;;;;;;;48.03;33.50;;;4.30;99.90;;;;;;5117295;28;20188;-58
2022/01/15 04:34:21;;;;;;;50.67;33.13;;;4.40;99.90;;;;;;5116193;28;20610;-58
2022/01/15 04:36:48;;;;;;;49.22;34.17;;;4.50;99.90;;;;;;5117347;28;20203;-58
2022/01/15 04:39:14;;;;;;;47.83;34.70;;;4.50;99.90;;;;;;5117153;28;20184;-58
2022/01/15 04:41:40;;;;;;;49.50;34.40;;;4.50;99.90;;;;;;5117209;28;20176;-58
2022/01/15 04:44:07;;;;;;;48.63;33.83;;;4.50;99.90;;;;;;5117500;28;20532;-58
2022/01/15 04:46:37;;;;;;;46.53;33.22;;;4.40;99.90;;;;;;5117153;28;20184;-58
2022/01/15 04:49:04;;;;;;;50.70;35.33;;;4.50;99.90;;;;;;5117273;28;20345;-58
2022/01/15 04:51:30;;;;;;;52.63;35.43;;;4.50;99.90;;;;;;5117017;28;20184;-58
2022/01/15 04:53:55;;;;;;;53.40;35.60;;;4.40;99.90;;;;;;5116670;28;20172;-58
2022/01/15 04:56:21;;;;;;;57.85;37.28;;;4.40;99.90;;;;;;5116858;28;20180;-58
2022/01/15 04:58:47;;;;;;;52.87;35.93;;;4.60;99.90;;;;;;5115556;28;20215;-58
2022/01/15 05:01:13;;;;;;;56.35;38.40;;;4.50;99.90;;;;;;5116656;28;20180;-58
2022/01/15 05:03:38;;;;;;;54.63;36.88;;;4.50;99.90;;;;;;5116812;28;20526;-57
2022/01/15 05:06:04;;;;;;;59.30;38.37;;;4.50;99.90;;;;;;5116719;28;20626;-58
2022/01/15 05:08:30;;;;;;;58.13;37.80;;;4.40;99.90;;;;;;5116927;28;20264;-58
2022/01/15 05:10:59;;;;;;;59.28;40.03;;;4.40;99.90;;;;;;5116387;28;20537;-58
2022/01/15 05:13:28;;;;;;;60.03;40.47;;;4.40;99.90;;;;;;5115271;28;20176;-58
2022/01/15 05:15:54;;;;;;;60.72;39.95;;;4.40;99.90;;;;;;5116401;28;20263;-57
2022/01/15 05:18:20;;;;;;;58.97;39.70;;;4.50;99.90;;;;;;5116475;28;20259;-58
2022/01/15 05:20:47;;;;;;;64.50;41.80;;;4.50;99.90;;;;;;5115162;28;20207;-58
2022/01/15 05:23:13;;;;;;;64.60;40.10;;;4.50;99.90;;;;;;5114110;28;20180;-57
2022/01/15 05:25:39;;;;;;;64.85;41.45;;;4.50;99.90;;;;;;5116315;28;20177;-58
2022/01/15 05:28:06;;;;;;;64.57;41.00;;;4.50;99.90;;;;;;5116043;28;20622;-58
2022/01/15 05:30:33;;;;;;;69.37;42.33;;;4.40;99.90;;;;;;5114937;28;20212;-57
2022/01/15 05:32:58;;;;;;;67.33;40.70;;;4.40;99.90;;;;;;5116017;28;20187;-58
2022/01/15 05:35:28;;;;;;;72.23;41.33;;;4.40;99.90;;;;;;5115002;28;20172;-58
2022/01/15 05:37:59;;;;;;;69.67;40.87;;;4.40;99.90;;;;;;5116105;28;20656;-57
2022/01/15 05:40:26;;;;;;;71.50;43.07;;;4.10;99.90;;;;;;5116161;28;20169;-58
2022/01/15 05:42:52;;;;;;;72.50;42.47;;;4.10;99.90;;;;;;5116045;27;20189;-57
2022/01/15 05:45:19;;;;;;;73.20;43.23;;;4.10;99.90;;;;;;5115965;28;20211;-57
2022/01/15 05:47:44;;;;;;;74.80;42.63;;;4.20;99.90;;;;;;5116130;28;20175;-57
2022/01/15 05:50:10;;;;;;;77.10;43.97;;;4.20;99.90;;;;;;5115526;28;20212;-58
2022/01/15 05:52:36;;;;;;;76.50;43.83;;;4.20;99.90;;;;;;5115910;28;20259;-58
2022/01/15 05:55:03;;;;;;;74.07;43.47;;;4.20;99.90;;;;;;5114559;28;20225;-58
2022/01/15 05:57:28;;;;;;;73.83;43.77;;;4.20;99.90;;;;;;5115691;28;20709;-57
2022/01/15 05:59:54;;;;;;;87.77;50.67;;;4.40;99.90;;;;;;5114537;28;20181;-55
2022/01/15 06:02:20;;;;;;;76.40;46.07;;;4.30;99.90;;;;;;5115652;28;20302;-53
2022/01/15 06:04:46;;;;;;;84.07;47.63;;;4.30;99.90;;;;;;5115582;28;20204;-56
2022/01/15 06:07:12;;;;;;;78.40;45.67;;;4.30;99.90;;;;;;5114384;28;20265;-57
2022/01/15 06:09:38;;;;;;;77.13;45.37;;;4.40;99.90;;;;;;5114211;28;20691;-55
2022/01/15 06:12:04;;;;;;;76.50;45.30;;;4.40;99.90;;;;;;5115463;28;20183;-55
2022/01/15 06:14:31;;;;;;;77.17;45.17;;;4.30;99.90;;;;;;5115322;28;20184;-56
2022/01/15 06:16:58;;;;;;;78.40;43.70;;;4.40;99.90;;;;;;5115445;28;20185;-55
2022/01/15 06:19:23;;;;;;;77.88;43.45;;;4.30;99.90;;;;;;5114913;28;20180;-56
2022/01/15 06:21:49;;;;;;;76.13;44.25;;;4.30;99.90;;;;;;5114940;28;20228;-55
2022/01/15 06:24:15;;;;;;;73.40;42.80;;;4.30;99.90;;;;;;5115009;28;20181;-55
2022/01/15 06:26:41;;;;;;;72.40;44.50;;;4.30;99.90;;;;;;5115426;28;20176;-55
2022/01/15 06:29:07;;;;;;;72.90;42.35;;;4.30;99.90;;;;;;5114762;28;20235;-57
2022/01/15 06:31:32;;;;;;;78.00;44.03;;;4.30;99.90;;;;;;5114735;28;20551;-57
2022/01/15 06:33:59;;;;;;;73.63;43.00;;;4.30;99.90;;;;;;5113442;28;20180;-58
2022/01/15 06:36:25;;;;;;;68.47;40.90;;;4.30;99.90;;;;;;5114708;28;20184;-57
2022/01/15 06:38:51;;;;;;;68.50;42.77;;;4.20;99.90;;;;;;5113330;28;20177;-57
2022/01/15 06:41:17;;;;;;;64.83;40.27;;;4.20;99.90;;;;;;5114832;28;20226;-58
2022/01/15 06:43:42;;;;;;;70.23;42.07;;;4.10;99.90;;;;;;5114775;28;20172;-57
2022/01/15 06:46:08;;;;;;;73.00;43.90;;;4.10;99.90;;;;;;5114455;28;20309;-58
2022/01/15 06:48:34;;;;;;;70.17;42.10;;;4.10;99.90;;;;;;5115586;28;20191;-58
2022/01/15 06:50:59;;;;;;;71.27;43.17;;;4.10;99.90;;;;;;5116588;28;20197;-59
2022/01/15 06:53:25;;;;;;;71.47;42.33;;;4.10;99.90;;;;;;5114575;28;20176;-58
2022/01/15 06:55:52;;;;;;;69.10;42.17;;;3.90;99.90;;;;;;5114542;28;20183;-57
2022/01/15 06:58:19;;;;;;;72.00;44.80;;;3.90;99.90;;;;;;5113364;28;20183;-57
2022/01/15 07:00:45;;;;;;;73.37;44.50;;;3.90;99.90;;;;;;5114506;28;20221;-57
2022/01/15 07:03:12;;;;;;;71.50;43.73;;;4.00;99.90;;;;;;5128379;27;20172;-57
2022/01/15 07:05:38;;;;;;;78.23;48.90;;;3.90;99.90;;;;;;5133397;27;20678;-58
2022/01/15 07:08:04;;;;;;;75.43;44.37;;;4.00;99.90;;;;;;5115161;27;20180;-57
2022/01/15 07:10:30;;;;;;;77.93;43.50;;;3.90;99.90;;;;;;5134695;27;20207;-57
2022/01/15 07:12:56;;;;;;;191.77;120.05;;;3.90;99.90;;;;;;5134810;27;20168;-57
2022/01/15 07:15:22;;;;;;;82.03;52.80;;;4.00;99.90;;;;;;5134370;27;20172;-57
2022/01/15 07:17:48;;;;;;;75.53;47.73;;;3.80;99.90;;;;;;5114951;27;20625;-57
2022/01/15 07:20:15;;;;;;;77.27;44.00;;;3.80;99.90;;;;;;5114119;28;20204;-57
2022/01/15 07:22:43;;;;;;;79.00;47.10;;;3.70;99.90;;;;;;5114091;28;20172;-57
2022/01/15 07:25:09;;;;;;;77.97;45.93;;;3.70;99.90;;;;;;5112462;28;20187;-57
2022/01/15 07:27:36;;;;;;;73.97;43.00;;;3.70;99.90;;;;;;5110895;28;20173;-57
2022/01/15 07:30:08;;;;;;;86.50;46.53;;;3.70;99.90;;;;;;5113662;28;20305;-57
2022/01/15 07:32:34;;;;;;;83.33;46.23;;;3.60;99.90;;;;;;5124722;27;20176;-57
2022/01/15 07:35:00;;;;;;;89.07;47.40;;;3.70;99.90;;;;;;5134253;27;20176;-57
2022/01/15 07:37:25;;;;;;;83.70;45.13;;;3.70;99.90;;;;;;5134295;27;20175;-58
2022/01/15 07:39:53;;;;;;;82.17;45.50;;;3.70;99.90;;;;;;5134527;27;20214;-57
2022/01/15 07:42:19;;;;;;;85.43;46.87;;;3.80;99.90;;;;;;5133021;28;20184;-57
2022/01/15 07:44:45;;;;;;;84.10;45.63;;;3.80;99.90;;;;;;5132864;27;20180;-57
2022/01/15 07:47:12;;;;;;;85.67;47.17;;;3.70;99.90;;;;;;5115978;28;20224;-57
2022/01/15 07:49:38;;;;;;;88.87;47.57;;;3.60;99.90;;;;;;5134181;27;20208;-57
2022/01/15 07:52:04;;;;;;;84.83;47.70;;;3.70;99.90;;;;;;5134046;28;20199;-58
2022/01/15 07:54:30;;;;;;;81.30;46.23;;;3.70;99.90;;;;;;5134399;27;20246;-57
2022/01/15 07:56:55;;;;;;;81.90;45.20;;;3.60;99.90;;;;;;5134358;28;20285;-55
2022/01/15 07:59:22;;;;;;;84.17;45.93;;;3.60;99.90;;;;;;5134246;28;20180;-55
2022/01/15 08:01:47;;;;;;;87.43;45.80;;;3.60;99.90;;;;;;5134576;27;20179;-54
2022/01/15 08:04:13;;;;;;;80.95;43.15;;;3.60;99.90;;;;;;5134228;28;20179;-56
2022/01/15 08:06:41;;;;;;;86.40;45.37;;;3.60;99.90;;;;;;5134080;28;20186;-57
2022/01/15 08:09:06;;;;;;;83.90;44.73;;;3.70;99.90;;;;;;5133975;27;20265;-56
2022/01/15 08:11:32;;;;;;;84.13;45.58;;;3.80;99.90;;;;;;5134492;28;20621;-56
2022/01/15 08:13:57;;;;;;;78.93;44.60;;;3.70;99.90;;;;;;5134067;28;20183;-56
2022/01/15 08:16:23;;;;;;;80.68;45.28;;;3.80;99.90;;;;;;5134049;28;20188;-56
2022/01/15 08:18:49;;;;;;;80.78;43.97;;;3.90;99.90;;;;;;5133965;28;20168;-56
2022/01/15 08:21:15;;;;;;;87.40;45.67;;;3.90;99.90;;;;;;5132816;28;20263;-56
2022/01/15 08:23:41;;;;;;;87.57;47.17;;;3.90;99.90;;;;;;5132843;28;20180;-57
2022/01/15 08:26:07;;;;;;;85.47;45.28;;;3.90;99.90;;;;;;5134084;28;20540;-55
2022/01/15 08:28:32;;;;;;;86.60;44.83;;;3.90;99.90;;;;;;5132836;28;20229;-55
2022/01/15 08:30:58;;;;;;;84.38;44.33;;;4.00;99.90;;;;;;5133911;28;20212;-56
2022/01/15 08:33:24;;;;;;;86.22;46.00;;;4.00;99.90;;;;;;5133144;28;20230;-56
2022/01/15 08:35:50;;;;;;;80.33;42.97;;;4.10;99.90;;;;;;5133918;27;20222;-57
2022/01/15 08:38:15;;;;;;;83.33;43.03;;;4.20;99.90;;;;;;5133129;28;20176;-55
2022/01/15 08:40:42;;;;;;;80.10;42.17;;;4.10;99.90;;;;;;5134930;28;20271;-55
2022/01/15 08:43:08;;;;;;;82.43;42.37;;;4.10;99.90;;;;;;5133404;27;20188;-58
2022/01/15 08:45:36;;;;;;;82.93;43.25;;;4.10;99.90;;;;;;5132455;27;20187;-56
2022/01/15 08:48:02;;;;;;;80.90;44.57;;;4.10;99.90;;;;;;5131201;27;20188;-57
2022/01/15 08:50:28;;;;;;;78.87;41.23;;;4.00;99.90;;;;;;5133296;28;20219;-56
2022/01/15 08:52:53;;;;;;;78.50;40.80;;;4.10;99.90;;;;;;5132560;28;20172;-54
2022/01/15 08:55:20;;;;;;;77.18;40.72;;;4.00;99.90;;;;;;5133749;28;20183;-55
2022/01/15 08:57:46;;;;;;;84.35;43.30;;;4.00;99.90;;;;;;5135466;27;20264;-55
2022/01/15 09:00:15;;;;;;;78.00;40.67;;;4.10;99.90;;;;;;5136947;27;20657;-56
2022/01/15 09:02:41;;;;;;;78.17;38.70;;;4.20;99.90;;;;;;5137249;27;20242;-56
2022/01/15 09:05:08;;;;;;;71.83;37.37;;;4.20;99.90;;;;;;5136183;27;20201;-54
2022/01/15 09:07:34;;;;;;;74.73;35.90;;;4.20;99.90;;;;;;5136013;27;20274;-56
2022/01/15 09:09:59;;;;;;;70.57;35.20;;;4.10;99.90;;;;;;5136763;27;20633;-56
2022/01/15 09:12:25;;;;;;;74.43;38.50;;;4.10;99.90;;;;;;5137118;27;20210;-57
2022/01/15 09:14:58;;;;;;;81.18;38.45;;;4.10;99.90;;;;;;5136121;27;20186;-55
2022/01/15 09:17:25;;;;;;;75.33;35.53;;;4.20;99.90;;;;;;5136963;27;20279;-57
2022/01/15 09:19:51;;;;;;;76.70;37.40;;;4.20;99.90;;;;;;5137135;27;20188;-57
2022/01/15 09:22:16;;;;;;;72.47;37.10;;;4.10;99.90;;;;;;5136672;27;20267;-56
2022/01/15 09:24:45;;;;;;;70.43;33.80;;;4.10;99.90;;;;;;5136594;27;20628;-55
2022/01/15 09:32:46;;;;;;;72.57;36.20;;;4.20;99.90;;;;;;5136916;27;20643;-56
2022/01/15 09:35:14;;;;;;;77.57;37.03;;;4.20;99.90;;;;;;5136528;27;20662;-56
2022/01/15 09:37:40;;;;;;;78.47;37.53;;;4.20;99.90;;;;;;5136623;27;20194;-56
2022/01/15 09:40:08;;;;;;;76.83;37.17;;;4.20;99.90;;;;;;5136658;27;20201;-55
2022/01/15 09:42:35;;;;;;;74.10;34.90;;;4.30;99.90;;;;;;5136433;27;20191;-56
2022/01/15 09:45:03;;;;;;;76.87;38.20;;;4.40;99.90;;;;;;5136270;27;20225;-56
2022/01/15 09:47:29;;;;;;;78.03;37.57;;;4.30;99.90;;;;;;5136143;27;20195;-56
2022/01/15 09:49:57;;;;;;;69.83;36.17;;;4.40;99.90;;;;;;5136668;27;20212;-55
2022/01/15 09:52:23;;;;;;;70.10;34.10;;;4.40;99.90;;;;;;5136365;27;20183;-55
2022/01/15 09:54:50;;;;;;;74.83;35.37;;;4.50;99.90;;;;;;5136317;27;20317;-55
2022/01/15 09:57:17;;;;;;;66.03;35.67;;;4.40;99.90;;;;;;5136407;27;20190;-56
2022/01/15 09:59:42;;;;;;;67.65;35.10;;;4.40;99.90;;;;;;5135124;27;20187;-56
2022/01/15 10:02:09;;;;;;;72.50;36.50;;;4.40;99.90;;;;;;5135956;27;20522;-56
2022/01/15 10:04:35;;;;;;;71.70;34.45;;;4.50;99.90;;;;;;5136170;27;20253;-56
2022/01/15 10:07:15;;;;;;;70.10;34.53;;;4.60;99.90;;;;;;5136070;27;20586;-56
2022/01/15 10:09:42;;;;;;;70.15;34.15;;;4.70;99.90;;;;;;5135405;27;20218;-56
2022/01/15 10:12:08;;;;;;;67.47;33.33;;;4.70;99.90;;;;;;5135716;27;20625;-55
2022/01/15 10:14:39;;;;;;;68.97;33.77;;;4.70;99.90;;;;;;5135926;27;20267;-56
2022/01/15 10:17:22;;;;;;;61.50;32.47;;;4.70;99.90;;;;;;5135901;27;20532;-55
2022/01/15 10:19:49;;;;;;;66.47;33.80;;;4.70;99.90;;;;;;5136044;27;20228;-60
2022/01/15 10:22:25;;;;;;;72.25;38.15;;;4.80;99.90;;;;;;5135838;27;20629;-56
2022/01/15 10:24:56;;;;;;;68.07;37.37;;;4.70;99.90;;;;;;5136392;27;20160;-55
2022/01/15 10:27:24;;;;;;;67.57;35.93;;;4.60;99.90;;;;;;5138164;27;20192;-56
2022/01/15 10:29:56;;;;;;;69.30;36.13;;;4.70;99.90;;;;;;5135544;27;20286;-56
2022/01/15 10:32:23;;;;;;;79.87;40.30;;;4.70;99.90;;;;;;5135681;27;20588;-56
2022/01/15 10:34:48;;;;;;;70.00;38.37;;;4.70;99.90;;;;;;5135550;27;20200;-56
2022/01/15 10:37:18;;;;;;;76.13;38.85;;;4.70;99.90;;;;;;5135520;27;20209;-56
2022/01/15 10:40:08;;;;;;;70.93;37.93;;;4.80;99.90;;;;;;5135510;27;20176;-56
2022/01/15 10:42:35;;;;;;;71.72;38.08;;;4.70;99.90;;;;;;5125085;27;20241;-56
2022/01/15 10:45:09;;;;;;;71.15;37.03;;;4.80;99.90;;;;;;5135337;27;20176;-56
2022/01/15 10:47:49;;;;;;;72.78;37.58;;;4.80;99.90;;;;;;5135162;27;20175;-57
2022/01/15 10:50:20;;;;;;;66.80;33.57;;;4.90;99.90;;;;;;5135136;27;20204;-56
2022/01/15 10:52:46;;;;;;;61.13;32.65;;;4.90;99.90;;;;;;5135207;27;20172;-57
2022/01/15 10:55:15;;;;;;;60.88;31.85;;;4.90;99.90;;;;;;5135290;27;20172;-57
2022/01/15 10:57:52;;;;;;;57.05;33.05;;;4.90;99.90;;;;;;5135106;27;20172;-55
2022/01/15 11:00:17;;;;;;;59.08;31.50;;;4.90;99.90;;;;;;5135425;27;20168;-56
2022/01/15 11:02:48;;;;;;;56.03;32.08;;;4.90;99.90;;;;;;5134663;27;20251;-57
2022/01/15 11:05:24;;;;;;;57.65;31.73;;;5.10;99.90;;;;;;5134751;27;20632;-56
2022/01/15 11:07:50;;;;;;;50.55;28.38;;;5.10;99.90;;;;;;5134927;27;20246;-57
2022/01/15 11:10:16;;;;;;;54.13;30.17;;;5.00;99.90;;;;;;5132482;27;20211;-53
2022/01/15 11:12:42;;;;;;;51.47;30.33;;;5.10;99.90;;;;;;5114344;28;20168;-55
2022/01/15 11:15:08;;;;;;;54.03;29.55;;;5.10;99.90;;;;;;5114422;28;20176;-56
2022/01/15 11:17:34;;;;;;;49.40;29.25;;;5.20;99.90;;;;;;5114550;28;20196;-55
2022/01/15 11:20:04;;;;;;;49.85;29.55;;;5.10;99.90;;;;;;5113743;28;20180;-55
2022/01/15 11:22:32;;;;;;;49.25;28.75;;;5.10;99.90;;;;;;5114152;27;20180;-56
2022/01/15 11:24:58;;;;;;;50.10;28.80;;;5.10;99.90;;;;;;5114181;28;20184;-56
2022/01/15 11:27:28;;;;;;;49.58;30.50;;;5.10;99.90;;;;;;5112970;28;20173;-56
2022/01/15 11:29:57;;;;;;;45.58;28.90;;;5.20;99.90;;;;;;5114120;28;20202;-56
2022/01/15 11:32:24;;;;;;;50.88;29.67;;;5.10;99.90;;;;;;5114041;28;20181;-55
2022/01/15 11:35:00;;;;;;;45.78;27.42;;;5.20;99.90;;;;;;5113979;28;20239;-57
2022/01/15 11:37:26;;;;;;;44.78;28.48;;;5.10;99.90;;;;;;5113972;28;20284;-57
2022/01/15 11:39:55;;;;;;;49.55;29.77;;;5.20;99.90;;;;;;5112625;28;20188;-56
2022/01/15 11:42:33;;;;;;;46.45;28.50;;;5.30;99.90;;;;;;5113461;28;20641;-56
2022/01/15 11:44:59;;;;;;;44.67;28.65;;;5.30;99.90;;;;;;5113839;28;20204;-57
2022/01/15 11:47:26;;;;;;;43.78;27.70;;;5.50;99.90;;;;;;5113964;28;20598;-56
2022/01/15 11:49:58;;;;;;;40.33;27.25;;;5.40;99.90;;;;;;5113613;28;20220;-57
2022/01/15 11:52:24;;;;;;;42.95;26.17;;;5.50;99.90;;;;;;5113832;28;20184;-57
2022/01/15 11:54:59;;;;;;;37.72;26.05;;;5.50;99.90;;;;;;5113774;28;20255;-56
2022/01/15 11:57:33;;;;;;;39.15;24.58;;;5.40;99.90;;;;;;5113827;28;20208;-56
2022/01/15 12:00:00;;;;;;;36.78;26.17;;;5.40;99.90;;;;;;5113800;28;20247;-56
2022/01/15 12:02:33;;;;;;;38.15;24.20;;;5.40;99.90;;;;;;5113458;28;20533;-56
2022/01/15 12:05:17;;;;;;;44.67;28.70;;;5.40;99.90;;;;;;5111313;28;20230;-56
2022/01/15 12:07:44;;;;;;;52.13;30.77;;;5.40;99.90;;;;;;5113956;28;20180;-56
2022/01/15 12:10:12;;;;;;;43.25;30.55;;;5.50;99.90;;;;;;5113377;28;20254;-57
2022/01/15 12:12:44;;;;;;;50.55;29.70;;;5.50;99.90;;;;;;5113737;28;20199;-57
2022/01/15 12:15:16;;;;;;;43.08;27.15;;;5.50;99.90;;;;;;5114908;28;20268;-57
2022/01/15 12:17:54;;;;;;;41.97;26.38;;;5.40;99.90;;;;;;5113706;28;20562;-56
2022/01/15 12:20:25;;;;;;;45.42;27.17;;;5.40;99.90;;;;;;5113658;28;20528;-57
2022/01/15 12:22:57;;;;;;;46.40;26.63;;;5.30;99.90;;;;;;5113551;28;20168;-57
2022/01/15 12:25:25;;;;;;;37.53;24.92;;;5.30;99.90;;;;;;5112321;28;20173;-57
2022/01/15 12:28:13;;;;;;;39.72;28.20;;;5.20;99.90;;;;;;5113481;28;20563;-56
2022/01/15 12:30:42;;;;;;;42.17;27.23;;;5.20;99.90;;;;;;5113431;28;20213;-57
2022/01/15 12:33:13;;;;;;;38.35;24.65;;;5.20;99.90;;;;;;5117382;28;20180;-57
2022/01/15 12:35:40;;;;;;;42.70;27.00;;;5.10;99.90;;;;;;5117304;28;20169;-57
2022/01/15 12:38:15;;;;;;;39.47;28.05;;;5.00;99.90;;;;;;5117318;28;20172;-55
2022/01/15 12:41:11;;;;;;;42.83;28.35;;;4.90;99.90;;;;;;5117205;28;20175;-56
2022/01/15 12:43:40;;;;;;;44.45;26.98;;;4.90;99.90;;;;;;5113817;28;20189;-57
2022/01/15 12:46:10;;;;;;;42.67;27.02;;;5.00;99.90;;;;;;5117226;28;20198;-56
2022/01/15 12:48:39;;;;;;;40.60;29.38;;;5.10;99.90;;;;;;5117085;28;20693;-56
2022/01/15 12:51:08;;;;;;;37.83;24.80;;;5.10;99.90;;;;;;5117231;28;20216;-56
2022/01/15 12:53:37;;;;;;;35.83;24.73;;;5.10;99.90;;;;;;5116729;28;20180;-55
2022/01/15 12:56:15;;;;;;;36.80;24.95;;;5.10;99.90;;;;;;5116968;28;20175;-56
2022/01/15 12:58:41;;;;;;;41.53;28.95;;;5.10;99.90;;;;;;5116906;28;20716;-57
2022/01/15 13:01:08;;;;;;;35.03;24.67;;;5.10;99.90;;;;;;5117205;28;20509;-56
2022/01/15 13:03:37;;;;;;;43.78;30.33;;;5.10;99.90;;;;;;5116824;28;20176;-57
2022/01/15 13:06:03;;;;;;;41.60;27.92;;;5.10;99.90;;;;;;5116843;28;20180;-57